Time;durP1;ratioP1;P1;durP2;ratioP2;P2;SDS_P1;SDS_P2;PMS_P1;PMS_P2;Temp;Humidity;BMP_temperature;BMP_pressure;BME280_temperature;BME280_humidity;BME280_pressure;Samples;Min_cycle;Max_cycle;Signal;HPM_P1;HPM_P2
2022/04/18 00:01:41;;;;;;;;;;;;;;;;;;5028561;28;20428;-76
2022/04/18 00:04:07;;;;;;;;;;;;;;;;;;5033645;28;19943;-76
2022/04/18 00:06:35;;;;;;;;;;;;;;;;;;5014544;28;19921;-76
2022/04/18 00:09:01;;;;;;;;;;;;;;;;;;5033115;28;19931;-76
2022/04/18 00:11:27;;;;;;;;;;;;;;;;;;5033638;28;19925;-75
2022/04/18 00:13:53;;;;;;;;;;;;;;;;;;5033365;28;19921;-76
2022/04/18 00:16:20;;;;;;;;;;;;;;;;;;5033565;28;19921;-76
2022/04/18 00:18:46;;;;;;;;;;;;;;;;;;5033587;28;19927;-75
2022/04/18 00:21:12;;;;;;;;;;;;;;;;;;5032602;28;19928;-76
2022/04/18 00:23:38;;;;;;;;;;;;;;;;;;5034120;28;19928;-76
2022/04/18 00:26:07;;;;;;;;;;;;;;;;;;5035033;28;19925;-76
2022/04/18 00:28:33;;;;;;;;;;;;;;;;;;5033151;28;20350;-74
2022/04/18 00:30:59;;;;;;;;;;;;;;;;;;5031390;28;19921;-75
2022/04/18 00:33:25;;;;;;;;;;;;;;;;;;5033306;28;19920;-75
2022/04/18 00:35:52;;;;;;;;;;;;;;;;;;5033303;28;19931;-75
2022/04/18 00:38:18;;;;;;;;;;;;;;;;;;5033963;28;19971;-75
2022/04/18 00:40:44;;;;;;;;;;;;;;;;;;5033069;28;19922;-75
2022/04/18 00:43:10;;;;;;;;;;;;;;;;;;5032293;28;19943;-75
2022/04/18 00:45:36;;;;;;;;;;;;;;;;;;5033091;28;19921;-75
2022/04/18 00:48:02;;;;;;;;;;;;;;;;;;5032684;28;19921;-75
2022/04/18 00:50:29;;;;;;;;;;;;;;;;;;5032131;28;19921;-76
2022/04/18 00:52:55;;;;;;;;;;;;;;;;;;5032593;28;19921;-76
2022/04/18 00:55:21;;;;;;;;;;;;;;;;;;5033559;28;19932;-76
2022/04/18 00:57:47;;;;;;;;;;;;;;;;;;5032805;28;20385;-76
2022/04/18 01:00:13;;;;;;;;;;;;;;;;;;5032792;28;19921;-75
2022/04/18 01:02:39;;;;;;;;;;;;;;;;;;5018079;28;19928;-76
2022/04/18 01:05:06;;;;;;;;;;;;;;;;;;5032944;28;19927;-75
2022/04/18 01:07:32;;;;;;;;;;;;;;;;;;5033053;28;19925;-75
2022/04/18 01:09:58;;;;;;;;;;;;;;;;;;5032576;28;19921;-75
2022/04/18 01:12:24;;;;;;;;;;;;;;;;;;5028577;28;20284;-75
2022/04/18 01:14:50;;;;;;;;;;;;;;;;;;5032082;28;19921;-76
2022/04/18 01:17:16;;;;;;;;;;;;;;;;;;5032818;28;19943;-76
2022/04/18 01:19:43;;;;;;;;;;;;;;;;;;5032412;28;19920;-75
2022/04/18 01:22:09;;;;;;;;;;;;;;;;;;5032684;28;20012;-76
2022/04/18 01:30:03;;;;;;;;;;;;;;;;;;5032128;28;20458;-76
2022/04/18 01:32:29;;;;;;;;;;;;;;;;;;5028479;28;19950;-75
2022/04/18 01:34:57;;;;;;;;;;;;;;;;;;5032540;28;19921;-75
2022/04/18 01:37:23;;;;;;;;;;;;;;;;;;5032831;28;19921;-76
2022/04/18 01:39:49;;;;;;;;;;;;;;;;;;5031805;28;20380;-76
2022/04/18 01:42:15;;;;;;;;;;;;;;;;;;5033160;28;20032;-76
2022/04/18 01:44:41;;;;;;;;;;;;;;;;;;5031711;28;19937;-75
2022/04/18 01:47:08;;;;;;;;;;;;;;;;;;5032797;28;19928;-75
2022/04/18 01:49:34;;;;;;;;;;;;;;;;;;5025602;28;19921;-75
2022/04/18 01:52:00;;;;;;;;;;;;;;;;;;5029609;28;19921;-76
2022/04/18 01:54:26;;;;;;;;;;;;;;;;;;5031717;28;19928;-76
2022/04/18 01:56:52;;;;;;;;;;;;;;;;;;5032465;28;20020;-75
2022/04/18 01:59:18;;;;;;;;;;;;;;;;;;5031154;28;20300;-75
2022/04/18 02:01:44;;;;;;;;;;;;;;;;;;5012769;28;19928;-75
2022/04/18 02:04:11;;;;;;;;;;;;;;;;;;5027354;28;19921;-76
2022/04/18 02:06:37;;;;;;;;;;;;;;;;;;5031593;28;20390;-76
2022/04/18 02:09:03;;;;;;;;;;;;;;;;;;5031650;28;19952;-75
2022/04/18 02:11:29;;;;;;;;;;;;;;;;;;5031838;28;19924;-76
2022/04/18 02:13:55;;;;;;;;;;;;;;;;;;5031410;28;19951;-75
2022/04/18 02:16:21;;;;;;;;;;;;;;;;;;5032106;28;19932;-75
2022/04/18 02:18:48;;;;;;;;;;;;;;;;;;5031331;28;19929;-76
2022/04/18 02:21:16;;;;;;;;;;;;;;;;;;5031767;28;19928;-75
2022/04/18 02:23:42;;;;;;;;;;;;;;;;;;5031437;28;19932;-76
2022/04/18 02:26:08;;;;;;;;;;;;;;;;;;5031286;28;20312;-76
2022/04/18 02:28:35;;;;;;;;;;;;;;;;;;5020681;28;19921;-75
2022/04/18 02:31:01;;;;;;;;;;;;;;;;;;5028229;28;19921;-76
2022/04/18 02:33:27;;;;;;;;;;;;;;;;;;5030786;28;20003;-75
2022/04/18 02:35:53;;;;;;;;;;;;;;;;;;5031602;28;19921;-75
2022/04/18 02:38:19;;;;;;;;;;;;;;;;;;5024089;28;19932;-76
2022/04/18 02:40:45;;;;;;;;;;;;;;;;;;5029026;28;20377;-76
2022/04/18 02:43:12;;;;;;;;;;;;;;;;;;5030918;28;19931;-76
2022/04/18 02:45:38;;;;;;;;;;;;;;;;;;5031731;28;19929;-75
2022/04/18 02:48:04;;;;;;;;;;;;;;;;;;5030811;28;19921;-76
2022/04/18 02:50:31;;;;;;;;;;;;;;;;;;5031929;28;19921;-75
2022/04/18 02:52:57;;;;;;;;;;;;;;;;;;5030438;28;19921;-75
2022/04/18 02:55:23;;;;;;;;;;;;;;;;;;5032118;28;19943;-75
2022/04/18 02:57:50;;;;;;;;;;;;;;;;;;5031140;28;20466;-75
2022/04/18 03:00:16;;;;;;;;;;;;;;;;;;5035191;28;19921;-75
2022/04/18 03:02:42;;;;;;;;;;;;;;;;;;5034522;28;19929;-76
2022/04/18 03:05:08;;;;;;;;;;;;;;;;;;5035116;28;19921;-76
2022/04/18 03:07:34;;;;;;;;;;;;;;;;;;5035049;28;20023;-75
2022/04/18 03:10:00;;;;;;;;;;;;;;;;;;5034295;28;19921;-76
2022/04/18 03:12:26;;;;;;;;;;;;;;;;;;5034586;28;19921;-76
2022/04/18 03:14:53;;;;;;;;;;;;;;;;;;5033880;28;20277;-76
2022/04/18 03:17:19;;;;;;;;;;;;;;;;;;5034843;28;19928;-76
2022/04/18 03:19:45;;;;;;;;;;;;;;;;;;5034434;28;19928;-76
2022/04/18 03:22:11;;;;;;;;;;;;;;;;;;5035233;28;19921;-76
2022/04/18 03:24:37;;;;;;;;;;;;;;;;;;5033673;28;20380;-75
2022/04/18 03:27:03;;;;;;;;;;;;;;;;;;5032972;28;19948;-76
2022/04/18 03:29:30;;;;;;;;;;;;;;;;;;5031326;28;19921;-76
2022/04/18 03:31:56;;;;;;;;;;;;;;;;;;5022876;28;19921;-76
2022/04/18 03:34:22;;;;;;;;;;;;;;;;;;5032790;28;19925;-76
2022/04/18 03:42:15;;;;;;;;;;;;;;;;;;5034078;28;20011;-75
2022/04/18 03:44:44;;;;;;;;;;;;;;;;;;5034191;28;19927;-76
2022/04/18 03:47:11;;;;;;;;;;;;;;;;;;5022885;28;19935;-77
2022/04/18 03:49:37;;;;;;;;;;;;;;;;;;5033787;28;19924;-77
2022/04/18 03:52:03;;;;;;;;;;;;;;;;;;5033742;28;19931;-75
2022/04/18 03:54:30;;;;;;;;;;;;;;;;;;5032774;28;20312;-74
2022/04/18 03:56:56;;;;;;;;;;;;;;;;;;5014901;28;19921;-75
2022/04/18 03:59:22;;;;;;;;;;;;;;;;;;5031174;28;19932;-74
2022/04/18 04:01:48;;;;;;;;;;;;;;;;;;5034548;28;20304;-74
2022/04/18 04:04:14;;;;;;;;;;;;;;;;;;5033826;28;19929;-74
2022/04/18 04:06:40;;;;;;;;;;;;;;;;;;5034398;28;19931;-74
2022/04/18 04:09:07;;;;;;;;;;;;;;;;;;5034053;28;19961;-74
2022/04/18 04:11:33;;;;;;;;;;;;;;;;;;5031016;28;19973;-74
2022/04/18 04:13:59;;;;;;;;;;;;;;;;;;5033273;28;20399;-73
2022/04/18 04:16:25;;;;;;;;;;;;;;;;;;5033717;28;19943;-73
2022/04/18 04:18:52;;;;;;;;;;;;;;;;;;5024384;28;19921;-73
2022/04/18 04:21:18;;;;;;;;;;;;;;;;;;5021862;28;19931;-74
2022/04/18 04:23:44;;;;;;;;;;;;;;;;;;5033018;28;19928;-75
2022/04/18 04:26:10;;;;;;;;;;;;;;;;;;5033087;28;19928;-76
2022/04/18 04:28:36;;;;;;;;;;;;;;;;;;5029323;28;20288;-76
2022/04/18 04:31:03;;;;;;;;;;;;;;;;;;5033125;28;19931;-76
2022/04/18 04:33:30;;;;;;;;;;;;;;;;;;5032235;28;19987;-76
2022/04/18 04:35:57;;;;;;;;;;;;;;;;;;5033069;28;19971;-76
2022/04/18 04:38:23;;;;;;;;;;;;;;;;;;5033149;28;20415;-76
2022/04/18 04:40:49;;;;;;;;;;;;;;;;;;5032733;28;19960;-76
2022/04/18 04:43:15;;;;;;;;;;;;;;;;;;5027950;28;19967;-76
2022/04/18 04:45:41;;;;;;;;;;;;;;;;;;5018113;28;19927;-76
2022/04/18 04:48:08;;;;;;;;;;;;;;;;;;5032584;28;19921;-76
2022/04/18 04:50:34;;;;;;;;;;;;;;;;;;5032881;28;20311;-76
2022/04/18 04:53:01;;;;;;;;;;;;;;;;;;5032330;28;20296;-76
2022/04/18 04:55:27;;;;;;;;;;;;;;;;;;5032580;28;19935;-76
2022/04/18 04:57:53;;;;;;;;;;;;;;;;;;5032502;28;19932;-76
2022/04/18 05:00:19;;;;;;;;;;;;;;;;;;5032529;28;19921;-76
2022/04/18 05:02:45;;;;;;;;;;;;;;;;;;5015093;28;19940;-76
2022/04/18 05:05:12;;;;;;;;;;;;;;;;;;5032771;28;19928;-76
2022/04/18 05:07:38;;;;;;;;;;;;;;;;;;5031719;28;20304;-77
2022/04/18 05:10:04;;;;;;;;;;;;;;;;;;5032939;28;19925;-76
2022/04/18 05:12:31;;;;;;;;;;;;;;;;;;5032461;28;19928;-76
2022/04/18 05:14:57;;;;;;;;;;;;;;;;;;5032276;28;19921;-76
2022/04/18 05:17:23;;;;;;;;;;;;;;;;;;5024838;28;19925;-76
2022/04/18 05:19:49;;;;;;;;;;;;;;;;;;5032358;28;19979;-76
2022/04/18 05:22:15;;;;;;;;;;;;;;;;;;5031063;28;19921;-76
2022/04/18 05:24:41;;;;;;;;;;;;;;;;;;5031645;28;19921;-77
2022/04/18 05:27:08;;;;;;;;;;;;;;;;;;5031533;28;19920;-76
2022/04/18 05:29:34;;;;;;;;;;;;;;;;;;5031650;28;19928;-76
2022/04/18 05:32:00;;;;;;;;;;;;;;;;;;5031875;28;19925;-76
2022/04/18 05:34:26;;;;;;;;;;;;;;;;;;5031659;28;19920;-75
2022/04/18 05:36:52;;;;;;;;;;;;;;;;;;5031866;28;20381;-75
2022/04/18 05:39:20;;;;;;;;;;;;;;;;;;5032061;28;20292;-76
2022/04/18 05:41:46;;;;;;;;;;;;;;;;;;5031386;28;19925;-76
2022/04/18 05:44:12;;;;;;;;;;;;;;;;;;5031501;28;19921;-77
2022/04/18 05:46:38;;;;;;;;;;;;;;;;;;5031391;28;19921;-76
2022/04/18 05:49:04;;;;;;;;;;;;;;;;;;5031906;28;19928;-76
2022/04/18 05:51:32;;;;;;;;;;;;;;;;;;5031555;28;19925;-76
2022/04/18 05:54:00;;;;;;;;;;;;;;;;;;5031166;28;20327;-75
2022/04/18 05:56:26;;;;;;;;;;;;;;;;;;5055771;22;19921;-78
2022/04/18 05:58:52;;;;;;;;;;;;;;;;;;5027881;28;19925;-78
2022/04/18 06:01:21;;;;;;;;;;;;;;;;;;5020904;28;20398;-78
2022/04/18 06:03:47;;;;;;;;;;;;;;;;;;5028004;28;20356;-78
2022/04/18 06:06:13;;;;;;;;;;;;;;;;;;5029229;28;19925;-78
2022/04/18 06:08:39;;;;;;;;;;;;;;;;;;5015793;28;20284;-78
2022/04/18 06:11:06;;;;;;;;;;;;;;;;;;5027532;28;19921;-78
2022/04/18 06:13:32;;;;;;;;;;;;;;;;;;5031214;28;19932;-79
2022/04/18 06:15:58;;;;;;;;;;;;;;;;;;5028004;28;19921;-78
2022/04/18 06:18:24;;;;;;;;;;;;;;;;;;5028069;28;20020;-78
2022/04/18 06:20:51;;;;;;;;;;;;;;;;;;5026077;28;19921;-78
2022/04/18 06:23:17;;;;;;;;;;;;;;;;;;5022865;28;19928;-78
2022/04/18 06:25:43;;;;;;;;;;;;;;;;;;5023273;28;20403;-78
2022/04/18 06:28:09;;;;;;;;;;;;;;;;;;5023892;28;20068;-78
2022/04/18 06:30:35;;;;;;;;;;;;;;;;;;5016562;28;19956;-78
2022/04/18 06:33:01;;;;;;;;;;;;;;;;;;5031209;28;19983;-78
2022/04/18 06:35:28;;;;;;;;;;;;;;;;;;5035691;28;19927;-79
2022/04/18 06:37:54;;;;;;;;;;;;;;;;;;5017642;28;19925;-79
2022/04/18 06:40:20;;;;;;;;;;;;;;;;;;5017928;28;20381;-79
2022/04/18 06:42:46;;;;;;;;;;;;;;;;;;5033996;28;19931;-80
2022/04/18 06:45:12;;;;;;;;;;;;;;;;;;5032120;28;19925;-79
2022/04/18 06:47:38;;;;;;;;;;;;;;;;;;5027298;28;19928;-79
2022/04/18 06:50:08;;;;;;;;;;;;;;;;;;5016096;28;20296;-79
2022/04/18 06:52:35;;;;;;;;;;;;;;;;;;5025455;28;19921;-79
2022/04/18 06:55:01;;;;;;;;;;;;;;;;;;5016208;28;19921;-79
2022/04/18 06:57:26;;;;;;;;;;;;;;;;;;5016698;28;19921;-79
2022/04/18 06:59:54;;;;;;;;;;;;;;;;;;5031728;28;19923;-79
2022/04/18 07:02:20;;;;;;;;;;;;;;;;;;5019973;28;19928;-79
2022/04/18 07:04:46;;;;;;;;;;;;;;;;;;5025644;28;19928;-79
2022/04/18 07:07:13;;;;;;;;;;;;;;;;;;5015170;28;19921;-79
2022/04/18 07:09:39;;;;;;;;;;;;;;;;;;5015437;28;20304;-79
2022/04/18 07:12:05;;;;;;;;;;;;;;;;;;5015342;28;19922;-79
2022/04/18 07:14:31;;;;;;;;;;;;;;;;;;5015002;28;19921;-79
2022/04/18 07:16:58;;;;;;;;;;;;;;;;;;5015461;28;20012;-79
2022/04/18 07:19:24;;;;;;;;;;;;;;;;;;5015446;28;20024;-79
2022/04/18 07:21:50;;;;;;;;;;;;;;;;;;5015298;28;19927;-80
2022/04/18 07:24:16;;;;;;;;;;;;;;;;;;5027348;28;19961;-79
2022/04/18 07:26:42;;;;;;;;;;;;;;;;;;5034837;28;19931;-78
2022/04/18 07:29:09;;;;;;;;;;;;;;;;;;5020288;28;20392;-79
2022/04/18 07:31:35;;;;;;;;;;;;;;;;;;5028780;28;19943;-79
2022/04/18 07:34:01;;;;;;;;;;;;;;;;;;5024728;28;19929;-79
2022/04/18 07:36:27;;;;;;;;;;;;;;;;;;5015478;28;19922;-79
2022/04/18 07:38:53;;;;;;;;;;;;;;;;;;5029146;28;20098;-79
2022/04/18 07:41:19;;;;;;;;;;;;;;;;;;5034883;28;20372;-79
2022/04/18 07:43:46;;;;;;;;;;;;;;;;;;5022311;28;19921;-79
2022/04/18 07:46:12;;;;;;;;;;;;;;;;;;5021487;28;19921;-78
2022/04/18 07:48:38;;;;;;;;;;;;;;;;;;5019174;28;19929;-79
2022/04/18 07:53:48;;;;;;;;;;;;;;;;;;5031907;28;19916;-79
2022/04/18 07:56:14;;;;;;;;;;;;;;;;;;5034337;28;19921;-79
2022/04/18 07:58:40;;;;;;;;;;;;;;;;;;5034858;28;20288;-78
2022/04/18 08:01:07;;;;;;;;;;;;;;;;;;5034116;28;19920;-78
2022/04/18 08:03:33;;;;;;;;;;;;;;;;;;5028578;28;19928;-78
2022/04/18 08:05:59;;;;;;;;;;;;;;;;;;5024117;28;20388;-77
2022/04/18 08:08:25;;;;;;;;;;;;;;;;;;5019862;28;20003;-78
2022/04/18 08:10:51;;;;;;;;;;;;;;;;;;5034419;28;19921;-77
2022/04/18 08:13:18;;;;;;;;;;;;;;;;;;5033526;28;19928;-78
2022/04/18 08:15:44;;;;;;;;;;;;;;;;;;5017736;28;20416;-78
2022/04/18 08:18:10;;;;;;;;;;;;;;;;;;5014474;28;19928;-77
2022/04/18 08:20:36;;;;;;;;;;;;;;;;;;5014162;28;19929;-79
2022/04/18 08:23:02;;;;;;;;;;;;;;;;;;5013788;28;20347;-79
2022/04/18 08:25:28;;;;;;;;;;;;;;;;;;5014500;28;19921;-78
2022/04/18 08:27:55;;;;;;;;;;;;;;;;;;5014390;28;19928;-78
2022/04/18 08:30:21;;;;;;;;;;;;;;;;;;5014266;28;19921;-79
2022/04/18 08:32:47;;;;;;;;;;;;;;;;;;5033725;28;19921;-78
2022/04/18 08:35:13;;;;;;;;;;;;;;;;;;5026039;28;20013;-79
2022/04/18 08:37:40;;;;;;;;;;;;;;;;;;5015774;28;19922;-80
2022/04/18 08:40:06;;;;;;;;;;;;;;;;;;5016605;28;19921;-78
2022/04/18 08:42:32;;;;;;;;;;;;;;;;;;5020236;28;19931;-78
2022/04/18 08:44:58;;;;;;;;;;;;;;;;;;5013767;28;20296;-78
2022/04/18 08:52:52;;;;;;;;;;;;;;;;;;5013303;28;19915;-78
2022/04/18 08:55:18;;;;;;;;;;;;;;;;;;5015378;28;20278;-78
2022/04/18 08:57:45;;;;;;;;;;;;;;;;;;5032583;28;19927;-78
2022/04/18 09:00:12;;;;;;;;;;;;;;;;;;5018566;28;19963;-78
2022/04/18 09:02:38;;;;;;;;;;;;;;;;;;5013139;28;19921;-78
2022/04/18 09:05:05;;;;;;;;;;;;;;;;;;5013009;28;19928;-78
2022/04/18 09:07:31;;;;;;;;;;;;;;;;;;5013381;28;19921;-78
2022/04/18 09:09:58;;;;;;;;;;;;;;;;;;5014675;28;19987;-78
2022/04/18 09:12:24;;;;;;;;;;;;;;;;;;5025624;28;20063;-78
2022/04/18 09:14:50;;;;;;;;;;;;;;;;;;5030372;28;19921;-78
2022/04/18 09:17:16;;;;;;;;;;;;;;;;;;5013549;28;19943;-78
2022/04/18 09:19:42;;;;;;;;;;;;;;;;;;5013272;28;20381;-78
2022/04/18 09:22:09;;;;;;;;;;;;;;;;;;5032787;28;19921;-79
2022/04/18 09:24:35;;;;;;;;;;;;;;;;;;5030464;28;19925;-78
2022/04/18 09:27:01;;;;;;;;;;;;;;;;;;5016622;28;19921;-78
2022/04/18 09:29:27;;;;;;;;;;;;;;;;;;5012987;28;19921;-79
2022/04/18 09:31:53;;;;;;;;;;;;;;;;;;5022268;28;20004;-78
2022/04/18 09:34:20;;;;;;;;;;;;;;;;;;5013682;28;20397;-78
2022/04/18 09:36:47;;;;;;;;;;;;;;;;;;5032184;28;19975;-78
2022/04/18 09:39:13;;;;;;;;;;;;;;;;;;5015020;28;19926;-78
2022/04/18 09:41:39;;;;;;;;;;;;;;;;;;5012711;28;20372;-78
2022/04/18 09:44:05;;;;;;;;;;;;;;;;;;5030589;28;19927;-78
2022/04/18 09:46:31;;;;;;;;;;;;;;;;;;5024219;28;19921;-78
2022/04/18 09:48:57;;;;;;;;;;;;;;;;;;5022541;28;19921;-78
2022/04/18 09:51:23;;;;;;;;;;;;;;;;;;5012354;28;19957;-78
2022/04/18 09:53:50;;;;;;;;;;;;;;;;;;5017881;28;19928;-78
2022/04/18 09:56:16;;;;;;;;;;;;;;;;;;5012030;28;19961;-78
2022/04/18 09:58:42;;;;;;;;;;;;;;;;;;5028725;28;20128;-78
2022/04/18 10:01:08;;;;;;;;;;;;;;;;;;5017748;28;19921;-78
2022/04/18 10:03:34;;;;;;;;;;;;;;;;;;5011964;28;19921;-78
2022/04/18 10:06:01;;;;;;;;;;;;;;;;;;5012717;28;19921;-78
2022/04/18 10:08:27;;;;;;;;;;;;;;;;;;5017459;28;19921;-78
2022/04/18 10:10:54;;;;;;;;;;;;;;;;;;5025574;28;20392;-78
2022/04/18 10:13:21;;;;;;;;;;;;;;;;;;5015790;28;19928;-78
2022/04/18 10:15:48;;;;;;;;;;;;;;;;;;5034957;28;19921;-79
2022/04/18 10:18:14;;;;;;;;;;;;;;;;;;5036695;28;19932;-78
2022/04/18 10:20:41;;;;;;;;;;;;;;;;;;5022391;28;19944;-78
2022/04/18 10:23:07;;;;;;;;;;;;;;;;;;5016073;28;19954;-78
2022/04/18 10:25:33;;;;;;;;;;;;;;;;;;5019969;28;19932;-78
2022/04/18 10:27:59;;;;;;;;;;;;;;;;;;5016728;28;19969;-78
2022/04/18 10:30:26;;;;;;;;;;;;;;;;;;5027477;28;19979;-78
2022/04/18 10:32:52;;;;;;;;;;;;;;;;;;5035510;28;19921;-78
2022/04/18 10:35:18;;;;;;;;;;;;;;;;;;5033725;28;19927;-78
2022/04/18 10:37:44;;;;;;;;;;;;;;;;;;5028112;28;19921;-78
2022/04/18 10:40:10;;;;;;;;;;;;;;;;;;5035707;28;20283;-78
2022/04/18 10:42:36;;;;;;;;;;;;;;;;;;5035234;28;19927;-78
2022/04/18 10:45:02;;;;;;;;;;;;;;;;;;5028804;28;19921;-78
2022/04/18 10:47:29;;;;;;;;;;;;;;;;;;5036126;28;19921;-78
2022/04/18 10:49:55;;;;;;;;;;;;;;;;;;5036975;28;19928;-79
2022/04/18 10:52:21;;;;;;;;;;;;;;;;;;5022733;28;19925;-79
2022/04/18 10:54:47;;;;;;;;;;;;;;;;;;5017414;28;19921;-78
2022/04/18 10:57:14;;;;;;;;;;;;;;;;;;5016122;28;19932;-78
2022/04/18 10:59:41;;;;;;;;;;;;;;;;;;5016822;28;20012;-79
2022/04/18 11:02:07;;;;;;;;;;;;;;;;;;5027687;28;20003;-78
2022/04/18 11:04:33;;;;;;;;;;;;;;;;;;5031223;28;19947;-78
2022/04/18 11:07:00;;;;;;;;;;;;;;;;;;5018929;28;19925;-79
2022/04/18 11:09:26;;;;;;;;;;;;;;;;;;5025122;28;20052;-78
2022/04/18 11:11:52;;;;;;;;;;;;;;;;;;5019778;28;20101;-78
2022/04/18 11:14:18;;;;;;;;;;;;;;;;;;5014555;28;20381;-78
2022/04/18 11:16:44;;;;;;;;;;;;;;;;;;5015924;28;19930;-78
2022/04/18 11:19:10;;;;;;;;;;;;;;;;;;5015847;28;19975;-78
2022/04/18 11:21:37;;;;;;;;;;;;;;;;;;5015521;28;19947;-78
2022/04/18 11:24:03;;;;;;;;;;;;;;;;;;5015127;28;19925;-78
2022/04/18 11:26:29;;;;;;;;;;;;;;;;;;5015894;28;19925;-78
2022/04/18 11:28:55;;;;;;;;;;;;;;;;;;5019444;28;20393;-78
2022/04/18 11:31:22;;;;;;;;;;;;;;;;;;5014740;28;20381;-78
2022/04/18 11:33:48;;;;;;;;;;;;;;;;;;5032107;28;19947;-78
2022/04/18 11:36:14;;;;;;;;;;;;;;;;;;5022478;28;20277;-78
2022/04/18 11:38:41;;;;;;;;;;;;;;;;;;5034372;28;19925;-78
2022/04/18 11:41:07;;;;;;;;;;;;;;;;;;5028572;28;19925;-78
2022/04/18 11:43:34;;;;;;;;;;;;;;;;;;5014397;28;20027;-78
2022/04/18 11:46:01;;;;;;;;;;;;;;;;;;5014578;28;19929;-78
2022/04/18 11:48:27;;;;;;;;;;;;;;;;;;5014874;28;19980;-78
2022/04/18 11:50:53;;;;;;;;;;;;;;;;;;5024780;28;19925;-78
2022/04/18 11:53:19;;;;;;;;;;;;;;;;;;5015970;28;19932;-78
2022/04/18 11:55:46;;;;;;;;;;;;;;;;;;5014806;28;20296;-78
2022/04/18 11:58:12;;;;;;;;;;;;;;;;;;5014952;28;19925;-78
2022/04/18 12:08:50;;;;;;;;;;;;;;;;;;5033069;28;19920;-78
2022/04/18 12:11:16;;;;;;;;;;;;;;;;;;5033839;28;19925;-78
2022/04/18 12:13:43;;;;;;;;;;;;;;;;;;5021196;28;19926;-78
2022/04/18 12:16:11;;;;;;;6.07;2.30;;;;;;;;;;5025002;28;19925;-78
2022/04/18 12:18:38;;;;;;;6.53;2.30;;;;;;;;;;5025638;28;20049;-78
2022/04/18 12:21:04;;;;;;;;;;;;;;;;;;5028920;28;20049;-78
2022/04/18 12:23:30;;;;;;;7.95;2.53;;;;;;;;;;5032331;28;19925;-78
2022/04/18 12:25:57;;;;;;;;;;;;;;;;;;5022084;28;20046;-78
2022/04/18 12:28:23;;;;;;;;;;;;;;;;;;5033797;28;19931;-78
2022/04/18 12:30:49;;;;;;;;;;;;;;;;;;5028861;28;19925;-78
2022/04/18 12:33:19;;;;;;;4.95;2.50;;;;;;;;;;5023706;28;19926;-78
2022/04/18 12:35:48;;;;;;;;;;;;;;;;;;5017335;28;20136;-78
2022/04/18 12:38:14;;;;;;;;;;;;;;;;;;5033811;28;20451;-79
2022/04/18 12:40:40;;;;;;;;;;;;;;;;;;5032171;28;19921;-77
2022/04/18 12:43:07;;;;;;;;;;;;;;;;;;5027038;28;19928;-78
2022/04/18 12:45:33;;;;;;;;;;;;;;;;;;5033875;28;19925;-78
2022/04/18 12:47:59;;;;;;;;;;;;;;;;;;5032605;28;20384;-78
2022/04/18 12:50:25;;;;;;;;;;;;;;;;;;5033428;28;19931;-78
2022/04/18 12:52:52;;;;;;;;;;;;;;;;;;5019636;28;19926;-78
2022/04/18 12:55:18;;;;;;;;;;;;;;;;;;5013837;28;19972;-78
2022/04/18 12:57:45;;;;;;;;;;;;;;;;;;5017728;28;19979;-78
2022/04/18 13:00:12;;;;;;;;;;;;;;;;;;5033249;28;19928;-78
2022/04/18 13:02:38;;;;;;;;;;;;;;;;;;5020983;28;20356;-78
2022/04/18 13:05:04;;;;;;;;;;;;;;;;;;5032643;28;19925;-78
2022/04/18 13:07:30;;;;;;;;;;;;;;;;;;5032571;28;19931;-78
2022/04/18 13:09:57;;;;;;;;;;;;;;;;;;5031571;28;20372;-78
2022/04/18 13:12:24;;;;;;;;;;;;;;;;;;5013406;28;19925;-78
2022/04/18 13:14:50;;;;;;;;;;;;;;;;;;5013156;28;19921;-78
2022/04/18 13:17:16;;;;;;;;;;;;;;;;;;5012720;28;20411;-79
2022/04/18 13:19:42;;;;;;;;;;;;;;;;;;5013488;28;19921;-78
2022/04/18 13:22:08;;;;;;;;;;;;;;;;;;5013232;28;20008;-78
2022/04/18 13:24:34;;;;;;;;;;;;;;;;;;5012767;28;19932;-78
2022/04/18 13:27:01;;;;;;;;;;;;;;;;;;5013235;28;19922;-78
2022/04/18 13:29:27;;;;;;;;;;;;;;;;;;5013023;28;19921;-78
2022/04/18 13:31:53;;;;;;;;;;;;;;;;;;5013335;28;19928;-78
2022/04/18 13:34:19;;;;;;;;;;;;;;;;;;5012129;28;20385;-78
2022/04/18 13:36:45;;;;;;;;;;;;;;;;;;5012566;28;19940;-78
2022/04/18 13:39:12;;;;;;;;;;;;;;;;;;5011942;28;19921;-78
2022/04/18 13:41:38;;;;;;;;;;;;;;;;;;5012237;28;19931;-78
2022/04/18 13:44:04;;;;;;;;;;;;;;;;;;5011791;28;19925;-78
2022/04/18 13:46:30;;;;;;;;;;;;;;;;;;5012969;28;19953;-78
2022/04/18 13:48:56;;;;;;;;;;;;;;;;;;5012924;28;20399;-77
2022/04/18 13:51:23;;;;;;;;;;;;;;;;;;5012919;28;19926;-78
2022/04/18 13:53:49;;;;;;;;;;;;;;;;;;5012544;28;19921;-78
2022/04/18 13:56:15;;;;;;;;;;;;;;;;;;5023536;28;19922;-78
2022/04/18 13:58:41;;;;;;;;;;;;;;;;;;5013314;28;19922;-78
2022/04/18 14:01:08;;;;;;;;;;;;;;;;;;5019867;28;19921;-78
2022/04/18 14:03:34;;;;;;;;;;;;;;;;;;5016468;28;19932;-79
2022/04/18 14:06:02;;;;;;;;;;;;;;;;;;5013431;28;19960;-78
2022/04/18 14:08:28;;;;;;;;;;;;;;;;;;5019035;28;19933;-78
2022/04/18 14:10:55;;;;;;;;;;;;;;;;;;5029960;28;19931;-78
2022/04/18 14:13:21;;;;;;;;;;;;;;;;;;5023263;28;19929;-78
2022/04/18 14:21:15;;;;;;;;;;;;;;;;;;5037309;28;19920;-78
2022/04/18 14:23:41;;;;;;;;;;;;;;;;;;5011802;28;20399;-78
2022/04/18 14:26:07;;;;;;;;;;;;;;;;;;5032120;28;19925;-78
2022/04/18 14:28:33;;;;;;;;;;;;;;;;;;5019148;28;19921;-78
2022/04/18 14:30:59;;;;;;;;;;;;;;;;;;5029576;28;20390;-78
2022/04/18 14:33:25;;;;;;;;;;;;;;;;;;5028390;28;19921;-78
2022/04/18 14:35:52;;;;;;;;;;;;;;;;;;5023674;28;20343;-78
2022/04/18 14:38:18;;;;;;;;;;;;;;;;;;5027846;28;20015;-78
2022/04/18 14:40:44;;;;;;;;;;;;;;;;;;5032290;28;19925;-78
2022/04/18 14:43:14;;;;;;;;;;;;;;;;;;5027184;28;20015;-78
2022/04/18 14:45:40;;;;;;;;;;;;;;;;;;5015593;28;20309;-77
2022/04/18 14:48:07;;;;;;;;;;;;;;;;;;5032324;28;19990;-75
2022/04/18 14:50:33;;;;;;;;;;;;;;;;;;5030128;28;19921;-75
2022/04/18 14:52:59;;;;;;;;;;;;;;;;;;5029951;28;19935;-76
2022/04/18 14:55:25;;;;;;;;;;;;;;;;;;5017325;28;19932;-76
2022/04/18 14:57:51;;;;;;;;;;;;;;;;;;5015944;28;20029;-76
2022/04/18 15:00:17;;;;;;;;;;;;;;;;;;5031403;28;19929;-75
2022/04/18 15:02:44;;;;;;;;;;;;;;;;;;5029858;28;19929;-76
2022/04/18 15:05:10;;;;;;;;;;;;;;;;;;5033170;28;19929;-75
2022/04/18 15:07:36;;;;;;;;;;;;;;;;;;5016076;28;19921;-75
2022/04/18 15:10:02;;;;;;;;;;;;;;;;;;5016660;28;20544;-76
2022/04/18 15:12:28;;;;;;;;;;;;;;;;;;5022701;28;19967;-77
2022/04/18 15:14:54;;;;;;;;;;;;;;;;;;5015581;28;19931;-78
2022/04/18 15:17:21;;;;;;;;;;;;;;;;;;5015383;28;19921;-77
2022/04/18 15:19:48;;;;;;;;;;;;;;;;;;5028138;28;20273;-77
2022/04/18 15:22:14;;;;;;;;;;;;;;;;;;5020758;28;20312;-77
2022/04/18 15:24:41;;;;;;;;;;;;;;;;;;5019453;28;19921;-77
2022/04/18 15:27:07;;;;;;;;;;;;;;;;;;5016213;28;19927;-77
2022/04/18 15:29:34;;;;;;;;;;;;;;;;;;5016674;28;19929;-77
2022/04/18 15:32:09;;;;;;;;;;;;;;;;;;5027690;28;20016;-78
2022/04/18 15:34:36;;;;;;;;;;;;;;;;;;5015486;28;20372;-77
2022/04/18 15:37:03;;;;;;;;;;;;;;;;;;5015542;28;19921;-77
2022/04/18 15:39:29;;;;;;;;;;;;;;;;;;5027176;28;19928;-76
2022/04/18 15:41:56;;;;;;;;;;;;;;;;;;5044648;28;19928;-77
2022/04/18 15:44:22;;;;;;;;;;;;;;;;;;5025888;28;19924;-75
2022/04/18 15:46:48;;;;;;;;;;;;;;;;;;5012502;28;19921;-76
2022/04/18 15:49:14;;;;;;;;;;;;;;;;;;5016781;28;19921;-76
2022/04/18 15:51:40;;;;;;;;;;;;;;;;;;5016671;28;19936;-75
2022/04/18 15:54:06;;;;;;;;;;;;;;;;;;5015981;28;19926;-75
2022/04/18 15:56:32;;;;;;;;;;;;;;;;;;5019600;28;19921;-75
2022/04/18 15:59:01;;;;;;;;;;;;;;;;;;5019541;28;20373;-75
2022/04/18 16:01:28;;;;;;;;;;;;;;;;;;5014864;28;19987;-75
2022/04/18 16:03:54;;;;;;;;;;;;;;;;;;5018695;28;19929;-75
2022/04/18 16:06:20;;;;;;;;;;;;;;;;;;5016949;28;19921;-75
2022/04/18 16:08:46;;;;;;;;;;;;;;;;;;5022975;28;19921;-75
2022/04/18 16:11:12;;;;;;;;;;;;;;;;;;5030593;28;19921;-76
2022/04/18 16:13:38;;;;;;;;;;;;;;;;;;5033610;28;20319;-75
2022/04/18 16:16:04;;;;;;;;;;;;;;;;;;5030358;28;19921;-76
2022/04/18 16:18:31;;;;;;;;;;;;;;;;;;5013859;28;19921;-75
2022/04/18 16:20:57;;;;;;;;;;;;;;;;;;5020443;28;19922;-76
2022/04/18 16:23:23;;;;;;;;;;;;;;;;;;5013304;28;19925;-75
2022/04/18 16:25:49;;;;;;;;;;;;;;;;;;5029756;28;20377;-76
2022/04/18 16:28:15;;;;;;;;;;;;;;;;;;5022338;28;19925;-76
2022/04/18 16:33:25;;;;;;;;;;;;;;;;;;5017140;28;20014;-75
2022/04/18 16:35:51;;;;;;;;;;;;;;;;;;5015852;28;20001;-75
2022/04/18 16:38:17;;;;;;;;;;;;;;;;;;5016046;28;19952;-75
2022/04/18 16:46:08;;;;;;;;;;;;;;;;;;5019663;28;20392;-75
2022/04/18 16:48:34;;;;;;;;;;;;;;;;;;5030492;28;19925;-75
2022/04/18 16:51:03;;;;;;;;;;;;;;;;;;5033964;28;19928;-75
2022/04/18 16:53:29;;;;;;;;;;;;;;;;;;5024420;28;19922;-75
2022/04/18 16:55:55;;;;;;;;;;;;;;;;;;5024858;28;19921;-75
2022/04/18 16:58:21;;;;;;;;;;;;;;;;;;5032653;28;19921;-75
2022/04/18 17:00:47;;;;;;;;;;;;;;;;;;5030672;28;19921;-75
2022/04/18 17:03:13;;;;;;;;;;;;;;;;;;5032740;28;19921;-75
2022/04/18 17:05:39;;;;;;;;;;;;;;;;;;5039642;28;19927;-75
2022/04/18 17:08:06;;;;;;;;;;;;;;;;;;5041550;28;19922;-75
2022/04/18 17:10:32;;;;;;;;;;;;;;;;;;5021103;28;19922;-75
2022/04/18 17:12:58;;;;;;;;;;;;;;;;;;5013659;28;20296;-75
2022/04/18 17:15:24;;;;;;;;;;;;;;;;;;5013718;28;19932;-75
2022/04/18 17:17:50;;;;;;;;;;;;;;;;;;5024827;28;19948;-75